createdAt,value
2022-08-01T00:00:20.291Z,0.88715
2022-08-01T00:05:22.055Z,0
2022-08-01T00:10:23.488Z,0
2022-08-01T00:15:24.947Z,0
2022-08-01T00:20:26.522Z,0.88715
2022-08-01T00:25:33.923Z,0.88715
2022-08-01T00:30:36.090Z,0
2022-08-01T00:35:37.824Z,0
2022-08-01T00:40:39.273Z,0
2022-08-01T00:45:40.980Z,0
2022-08-01T00:50:42.664Z,0
2022-08-01T00:55:44.186Z,0
2022-08-01T01:00:53.983Z,0
2022-08-01T01:05:56.567Z,0.88715
2022-08-01T01:10:58.021Z,0
2022-08-01T01:15:59.579Z,0
2022-08-01T01:21:01.056Z,0.88715
2022-08-01T01:26:03.023Z,0.88715
2022-08-01T01:31:04.557Z,0
2022-08-01T01:36:07.527Z,0
2022-08-01T01:41:13.218Z,0
2022-08-01T01:46:14.683Z,0.88715
2022-08-01T01:51:16.615Z,0.88715
2022-08-01T01:56:18.289Z,0
2022-08-01T02:01:58.515Z,0.88715
2022-08-01T02:07:09.932Z,0.88715
2022-08-01T02:12:11.811Z,0.88715
2022-08-01T02:17:13.523Z,0
2022-08-01T02:22:15.092Z,0.88715
2022-08-01T02:27:16.542Z,0
2022-08-01T02:32:18.133Z,0
2022-08-01T02:37:19.978Z,0
2022-08-01T02:42:21.663Z,0
2022-08-01T02:47:23.121Z,0
2022-08-01T02:52:24.787Z,0.88715
2022-08-01T02:57:30.149Z,0.88715
2022-08-01T03:02:52.878Z,0
2022-08-01T03:07:54.953Z,0
2022-08-01T03:12:56.409Z,0.88715
2022-08-01T03:17:57.932Z,0
2022-08-01T03:22:59.810Z,0.88715
2022-08-01T03:28:01.240Z,0.88715
2022-08-01T03:33:02.861Z,0
2022-08-01T03:38:16.071Z,0
2022-08-01T03:43:18.208Z,0
2022-08-01T03:48:19.995Z,0
2022-08-01T03:53:21.450Z,0.88715
2022-08-01T03:58:23.107Z,0.88715
2022-08-01T04:03:24.651Z,0
2022-08-01T04:08:30.003Z,0.88715
2022-08-01T04:13:37.095Z,0.88715
2022-08-01T04:18:39.099Z,0.88715
2022-08-01T04:23:40.868Z,0
2022-08-01T04:28:42.489Z,0.47405
2022-08-01T04:33:43.927Z,1.6592
2022-08-01T04:38:45.843Z,3.24595
2022-08-01T04:43:47.253Z,8.0778
2022-08-01T04:48:48.840Z,15.60225
2022-08-01T04:53:50.516Z,28.143
2022-08-01T04:58:52.159Z,42.39895
2022-08-01T05:03:53.583Z,58.55455
2022-08-01T05:08:55.532Z,74.2861
2022-08-01T05:13:56.940Z,91.5484
2022-08-01T05:18:58.395Z,117.44185
2022-08-01T05:23:59.945Z,147.92755
2022-08-01T05:29:01.430Z,179.15105
2022-08-01T05:34:03.067Z,206.68555
2022-08-01T05:39:04.698Z,230.29145
2022-08-01T05:44:06.416Z,252.9561
2022-08-01T05:49:08.037Z,250.81685
2022-08-01T05:54:09.896Z,276.0258
2022-08-01T05:59:11.346Z,284.52765
2022-08-01T06:04:12.908Z,297.0494
2022-08-01T06:09:14.565Z,332.77015
2022-08-01T06:14:16.017Z,385.20355
2022-08-01T06:19:17.621Z,426.53195
2022-08-01T06:24:19.188Z,487.22575
2022-08-01T06:29:20.732Z,533.405
2022-08-01T06:34:22.181Z,559.77765
2022-08-01T06:39:23.856Z,608.9081
2022-08-01T06:44:25.312Z,642.9345
2022-08-01T06:49:26.927Z,670.1191
2022-08-01T06:54:28.536Z,701.13915
2022-08-01T06:59:30.193Z,726.84815
2022-08-01T07:04:31.839Z,702.9971
2022-08-01T07:09:33.448Z,795.6026
2022-08-01T07:14:35.054Z,816.25915
2022-08-01T07:19:36.474Z,819.02405
2022-08-01T07:24:40.224Z,838.37045
2022-08-01T07:29:47.293Z,898.3816
2022-08-01T07:34:48.905Z,929.64125
2022-08-01T07:39:50.753Z,955.7553
2022-08-01T07:44:52.514Z,966.94975
2022-08-01T07:49:54.036Z,1019.45545
2022-08-01T07:54:55.605Z,1038.857
2022-08-01T07:59:57.057Z,1080.2234
2022-08-01T08:04:58.608Z,1104.955
2022-08-01T08:10:00.528Z,1113.47585
2022-08-01T08:15:02.676Z,1154.49235
2022-08-01T08:20:04.107Z,1165.52135
2022-08-01T08:25:08.224Z,1188.79635
2022-08-01T08:30:09.681Z,1208.7151
2022-08-01T08:35:12.150Z,1236.82195
2022-08-01T08:40:15.167Z,1270.23985
2022-08-01T08:45:16.773Z,1274.6115
2022-08-01T08:50:18.456Z,1316.6054
2022-08-01T08:55:20.022Z,1342.4627
2022-08-01T09:00:21.663Z,1390.50545
2022-08-01T09:05:23.109Z,1392.12935
2022-08-01T09:10:24.752Z,1470.95255
2022-08-01T09:15:26.352Z,1490.05935
2022-08-01T09:20:35.526Z,1518.11105
2022-08-01T09:25:46.296Z,1549.57415
2022-08-01T09:30:49.403Z,1553.52175
2022-08-01T09:35:50.981Z,1578.4188
2022-08-01T09:40:54.760Z,1636.439
2022-08-01T09:45:57.994Z,1629.4869
2022-08-01T09:51:04.866Z,1633.3052
2022-08-01T09:56:10.911Z,1685.3317
2022-08-01T10:01:12.449Z,1688.2829
2022-08-01T10:06:15.784Z,1723.47115
2022-08-01T10:11:19.696Z,1778.1351
2022-08-01T10:16:21.408Z,1706.61575
2022-08-01T10:21:56.601Z,1686.1455
2022-08-01T10:27:00.327Z,1837.18785
2022-08-01T10:32:08.041Z,1809.119
2022-08-01T10:37:09.788Z,1809.67235
2022-08-01T10:42:15.531Z,1902.65835
2022-08-01T10:47:22.800Z,1907.4902
2022-08-01T10:52:25.337Z,1858.35975
2022-08-01T10:57:27.518Z,1859.46645
2022-08-01T11:02:32.048Z,1849.93205
2022-08-01T11:07:35.012Z,1920.16025
2022-08-01T11:12:38.107Z,1879.1076
2022-08-01T11:17:41.996Z,1957.155
2022-08-01T11:22:43.898Z,1906.21805
2022-08-01T11:27:46.279Z,1863.00715
2022-08-01T11:33:11.538Z,1913.2063
2022-08-01T11:38:13.849Z,1950.6251
2022-08-01T11:43:16.267Z,1910.9739
2022-08-01T11:48:17.740Z,1934.0816
2022-08-01T11:53:19.235Z,1915.1041
2022-08-01T11:58:29.487Z,1947.0274
2022-08-01T12:03:33.803Z,1929.70995
2022-08-01T12:08:35.888Z,1874.03245
2022-08-01T12:13:37.987Z,1919.9531
2022-08-01T12:18:39.692Z,1846.97715
2022-08-01T12:23:41.128Z,1697.83445
2022-08-01T12:28:42.633Z,1730.49555
2022-08-01T12:33:44.308Z,1665.9473
2022-08-01T12:38:47.809Z,1836.68595
2022-08-01T12:43:49.430Z,1842.9364
2022-08-01T12:48:51.053Z,1486.37405
2022-08-01T12:53:52.527Z,1528.56955
2022-08-01T12:58:57.286Z,1783.182
2022-08-01T13:03:58.930Z,1686.08295
2022-08-01T13:09:00.473Z,1393.1276
2022-08-01T13:14:02.222Z,1587.0291
2022-08-01T13:19:03.830Z,1539.72415
2022-08-01T13:24:05.287Z,1592.92965
2022-08-01T13:29:06.925Z,1536.03515
2022-08-01T13:34:08.662Z,1480.5421
2022-08-01T13:39:10.117Z,1315.07835
2022-08-01T13:44:11.829Z,1267.95785
2022-08-01T13:49:16.295Z,1217.05705
2022-08-01T13:54:18.123Z,1226.46215
2022-08-01T13:59:19.676Z,1007.71875
2022-08-01T14:04:21.113Z,1029.73875
2022-08-01T14:09:24.070Z,941.5656
2022-08-01T14:14:26.455Z,841.3309
2022-08-01T14:19:37.482Z,820.8968
2022-08-01T14:24:41.119Z,717.7299
2022-08-01T14:29:59.864Z,636.67615
2022-08-01T14:35:04.045Z,511.83915
2022-08-01T14:40:05.646Z,434.8053
2022-08-01T14:45:09.299Z,360.18645
2022-08-01T14:50:10.814Z,295.4899
2022-08-01T14:55:12.354Z,251.37575
2022-08-01T15:00:14.470Z,210.0455
2022-08-01T15:05:16.047Z,171.18725
2022-08-01T15:10:17.674Z,137.5659
2022-08-01T15:15:19.732Z,114.82525
2022-08-01T15:20:21.176Z,89.57645
2022-08-01T15:25:22.607Z,78.5836
2022-08-01T15:30:27.326Z,51.84205
2022-08-01T15:35:29.008Z,34.57975
2022-08-01T15:40:30.496Z,23.8645
2022-08-01T15:45:47.869Z,9.00005
2022-08-01T15:50:50.085Z,4.0295
2022-08-01T15:55:52.734Z,2.1925
2022-08-01T16:00:54.745Z,0.47405
2022-08-01T16:05:56.245Z,0
2022-08-01T16:10:57.754Z,0.88715
2022-08-01T16:15:59.505Z,0.88715
2022-08-01T16:21:01.120Z,0.88715
2022-08-01T16:26:02.717Z,0.88715
2022-08-01T16:31:15.292Z,0
2022-08-01T16:36:38.215Z,0
2022-08-01T16:41:40.049Z,0
2022-08-01T16:46:42.376Z,0.88715
2022-08-01T16:51:48.224Z,0.88715
2022-08-01T16:56:52.144Z,0.88715
2022-08-01T17:02:00.975Z,0
2022-08-01T17:07:04.493Z,0.88715
2022-08-01T17:12:06.672Z,0
2022-08-01T17:17:09.366Z,0
2022-08-01T17:22:11.156Z,0
2022-08-01T17:27:13.419Z,0
2022-08-01T17:32:15.910Z,0
2022-08-01T17:37:17.657Z,0.88715
2022-08-01T17:42:19.221Z,0
2022-08-01T17:47:41.196Z,0.88715
2022-08-01T17:52:51.633Z,0
2022-08-01T17:57:53.085Z,0.88715
2022-08-01T18:02:54.762Z,0
2022-08-01T18:08:02.019Z,0
2022-08-01T18:13:03.932Z,0
2022-08-01T18:18:07.862Z,0
2022-08-01T18:23:09.504Z,0
2022-08-01T18:28:29.500Z,0
2022-08-01T18:33:34.199Z,0.88715
2022-08-01T18:38:37.376Z,0
2022-08-01T18:43:44.016Z,0
2022-08-01T18:48:45.645Z,0
2022-08-01T18:53:47.200Z,0
2022-08-01T18:58:48.610Z,0.88715
2022-08-01T19:03:50.034Z,0
2022-08-01T19:08:51.625Z,0
2022-08-01T19:13:53.450Z,0.88715
2022-08-01T19:18:55.546Z,0
2022-08-01T19:23:57.058Z,0.88715
2022-08-01T19:28:59.442Z,0
2022-08-01T19:34:00.936Z,0
2022-08-01T19:39:02.601Z,0
2022-08-01T19:44:04.747Z,0
2022-08-01T19:49:06.808Z,0.88715
2022-08-01T19:54:08.721Z,0
2022-08-01T19:59:10.418Z,0
2022-08-01T20:04:12.285Z,0
2022-08-01T20:09:14.422Z,0.88715
2022-08-01T20:14:16.134Z,0
2022-08-01T20:19:18.077Z,0
2022-08-01T20:24:20.026Z,0
2022-08-01T20:29:24.361Z,0
2022-08-01T20:34:27.817Z,0
2022-08-01T20:39:29.533Z,0
2022-08-01T20:44:32.712Z,0
2022-08-01T20:49:35.561Z,0
2022-08-01T20:54:37.168Z,0.88715
2022-08-01T20:59:40.016Z,0.88715
2022-08-01T21:04:58.240Z,0.88715
2022-08-01T21:10:00.118Z,0
2022-08-01T21:15:01.987Z,0
2022-08-01T21:20:04.266Z,0
2022-08-01T21:25:05.827Z,0
2022-08-01T21:30:07.340Z,0.88715
2022-08-01T21:35:15.735Z,0.88715
2022-08-01T21:40:18.569Z,0.88715
2022-08-01T21:45:20.025Z,0
2022-08-01T21:50:21.672Z,0
2022-08-01T21:55:35.693Z,0
2022-08-01T22:00:37.523Z,0
2022-08-01T22:05:50.494Z,0
2022-08-01T22:10:52.874Z,0.88715
2022-08-01T22:15:54.566Z,0
2022-08-01T22:20:56.938Z,0.88715
2022-08-01T22:25:58.416Z,0
2022-08-01T22:30:59.824Z,0
2022-08-01T22:36:01.441Z,0.88715
2022-08-01T22:41:02.917Z,0
2022-08-01T22:46:04.476Z,0
2022-08-01T22:51:06.139Z,0
2022-08-01T22:56:07.607Z,0.88715
2022-08-01T23:01:09.116Z,0
2022-08-01T23:06:10.820Z,0
2022-08-01T23:11:12.397Z,0
2022-08-01T23:16:17.355Z,0
2022-08-01T23:21:19.308Z,0
2022-08-01T23:26:20.826Z,0
2022-08-01T23:31:25.822Z,0
2022-08-01T23:37:05.118Z,0
2022-08-01T23:42:07.381Z,0.88715
2022-08-01T23:47:09.170Z,0.88715
2022-08-01T23:52:20.760Z,0.88715
2022-08-01T23:57:23.182Z,0.88715
